Time;durP1;ratioP1;P1;durP2;ratioP2;P2;SDS_P1;SDS_P2;PMS_P1;PMS_P2;Temp;Humidity;BMP_temperature;BMP_pressure;BME280_temperature;BME280_humidity;BME280_pressure;Samples;Min_cycle;Max_cycle;Signal;HPM_P1;HPM_P2
2023/05/06 00:04:49;;;;;;;5.80;3.00;;;;;;;;;;10356001;28;20058;-77
2023/05/06 00:10:05;;;;;;;5.22;2.47;;;;;;;;;;10349678;28;20108;-77
2023/05/06 00:15:13;;;;;;;8.50;2.92;;;;;;;;;;10353353;28;20060;-85
2023/05/06 00:20:21;;;;;;;5.95;2.63;;;;;;;;;;10346802;28;20046;-86
2023/05/06 00:25:29;;;;;;;6.18;3.13;;;;;;;;;;10353993;28;20068;-86
2023/05/06 00:30:39;;;;;;;3.97;2.10;;;;;;;;;;10347036;28;20042;-86
2023/05/06 00:35:59;;;;;;;5.93;2.72;;;;;;;;;;10351350;28;20037;-86
2023/05/06 00:41:04;;;;;;;5.35;2.75;;;;;;;;;;10351332;28;20073;-86
2023/05/06 00:46:17;;;;;;;5.10;2.72;;;;;;;;;;10355605;28;20133;-85
2023/05/06 00:51:27;;;;;;;6.00;2.08;;;;;;;;;;10343706;28;20050;-84
2023/05/06 00:56:37;;;;;;;6.53;2.60;;;;;;;;;;10356877;28;20050;-84
2023/05/06 01:01:56;;;;;;;4.80;2.60;;;;;;;;;;10350033;28;20050;-84
2023/05/06 01:07:07;;;;;;;5.28;2.47;;;;;;;;;;10349504;28;20029;-84
2023/05/06 01:12:31;;;;;;;5.63;3.10;;;;;;;;;;10354240;28;20065;-84
2023/05/06 01:17:49;;;;;;;5.38;2.42;;;;;;;;;;10345669;28;20557;-84
2023/05/06 01:22:59;;;;;;;;;;;;;;;;;;10368365;28;20052;-84
2023/05/06 01:28:13;;;;;;;6.80;2.72;;;;;;;;;;10355848;28;19975;-86
2023/05/06 01:33:23;;;;;;;5.80;2.53;;;;;;;;;;10374163;28;20113;-85
2023/05/06 01:38:51;;;;;;;6.75;2.92;;;;;;;;;;10372783;28;20041;-84
2023/05/06 01:44:05;;;;;;;6.70;3.60;;;;;;;;;;10398463;28;20136;-85
2023/05/06 01:49:17;;;;;;;7.95;3.55;;;;;;;;;;10381864;28;20058;-84
2023/05/06 01:54:52;;;;;;;7.15;3.65;;;;;;;;;;10398665;28;20495;-85
2023/05/06 02:05:22;;;;;;;7.85;2.88;;;;;;;;;;10391979;28;20483;-85
2023/05/06 02:10:26;;;;;;;6.55;3.05;;;;;;;;;;10389205;28;20059;-86
2023/05/06 02:15:33;;;;;;;5.32;2.40;;;;;;;;;;10394933;28;20132;-85
2023/05/06 02:20:39;;;;;;;3.30;1.48;;;;;;;;;;10387413;28;20461;-85
2023/05/06 02:25:59;;;;;;;4.28;2.08;;;;;;;;;;10401938;28;20434;-85
2023/05/06 02:31:04;;;;;;;3.55;2.55;;;;;;;;;;10395457;28;20072;-86
2023/05/06 02:41:34;;;;;;;7.25;3.35;;;;;;;;;;10383758;28;20517;-84
2023/05/06 02:46:46;;;;;;;3.10;1.88;;;;;;;;;;10388230;28;20049;-84
2023/05/06 02:51:51;;;;;;;3.47;2.15;;;;;;;;;;10378074;28;20482;-86
2023/05/06 02:56:56;;;;;;;7.03;3.08;;;;;;;;;;10396690;28;20581;-86
2023/05/06 03:02:09;;;;;;;4.47;2.60;;;;;;;;;;10379425;28;20053;-85
2023/05/06 03:07:16;;;;;;;5.28;1.92;;;;;;;;;;10393513;28;20050;-85
2023/05/06 03:12:20;;;;;;;5.65;3.05;;;;;;;;;;10388463;28;20057;-84
2023/05/06 03:17:26;;;;;;;5.07;3.10;;;;;;;;;;10354728;28;20073;-84
2023/05/06 03:22:34;;;;;;;4.47;2.60;;;;;;;;;;10387230;28;20482;-85
2023/05/06 03:27:40;;;;;;;5.25;3.15;;;;;;;;;;10390873;28;20368;-84
2023/05/06 03:32:53;;;;;;;6.55;2.83;;;;;;;;;;10361933;28;20383;-83
2023/05/06 03:38:01;;;;;;;6.15;2.40;;;;;;;;;;10393125;28;20049;-85
2023/05/06 03:43:08;;;;;;;7.28;3.50;;;;;;;;;;10369027;28;20093;-86
2023/05/06 03:48:24;;;;;;;5.20;2.42;;;;;;;;;;10380403;28;20131;-86
2023/05/06 03:53:29;;;;;;;6.57;2.90;;;;;;;;;;10400474;28;20696;-86
2023/05/06 03:58:37;;;;;;;7.05;3.72;;;;;;;;;;10375067;28;20479;-86
2023/05/06 04:09:25;;;;;;;5.85;2.45;;;;;;;;;;10399313;28;20045;-87
2023/05/06 04:14:36;;;;;;;7.83;3.40;;;;;;;;;;10394736;28;20125;-87
2023/05/06 04:19:42;;;;;;;7.18;3.10;;;;;;;;;;10389823;28;20085;-86
2023/05/06 04:24:47;;;;;;;6.55;3.38;;;;;;;;;;10398113;28;20033;-86
2023/05/06 04:29:52;;;;;;;5.47;2.78;;;;;;;;;;10410976;28;20065;-86
2023/05/06 04:34:59;;;;;;;4.28;2.10;;;;;;;;;;10401315;28;20092;-87
2023/05/06 04:40:10;;;;;;;4.43;2.00;;;;;;;;;;10405128;28;20107;-84
2023/05/06 04:45:14;;;;;;;4.20;2.65;;;;;;;;;;10399325;28;20049;-85
2023/05/06 04:50:25;;;;;;;8.85;2.90;;;;;;;;;;10388994;28;20055;-86
2023/05/06 04:55:44;;;;;;;2.97;1.63;;;;;;;;;;10397035;28;20049;-84
2023/05/06 05:00:49;;;;;;;5.65;2.10;;;;;;;;;;10392382;28;20456;-85
2023/05/06 05:06:03;;;;;;;5.28;3.08;;;;;;;;;;10391789;28;20041;-87
2023/05/06 05:11:16;;;;;;;4.70;2.22;;;;;;;;;;10398943;28;20904;-85
2023/05/06 05:16:20;;;;;;;6.32;3.08;;;;;;;;;;10405573;28;20113;-87
2023/05/06 05:21:27;;;;;;;5.70;2.97;;;;;;;;;;10398022;28;20037;-86
2023/05/06 05:26:39;;;;;;;6.45;2.58;;;;;;;;;;10395614;28;20053;-87
2023/05/06 05:31:47;;;;;;;4.32;2.67;;;;;;;;;;10367587;28;20101;-86
2023/05/06 05:37:00;;;;;;;5.90;3.25;;;;;;;;;;10401907;28;20037;-87
2023/05/06 05:42:05;;;;;;;5.43;3.10;;;;;;;;;;10360057;28;20053;-86
2023/05/06 05:47:12;;;;;;;7.70;4.22;;;;;;;;;;10377864;28;20049;-86
2023/05/06 05:52:22;;;;;;;5.20;2.95;;;;;;;;;;10360304;28;20053;-87
2023/05/06 05:57:34;;;;;;;7.28;3.22;;;;;;;;;;10392217;28;20045;-86
2023/05/06 06:03:07;;;;;;;4.57;2.85;;;;;;;;;;10392145;28;20041;-87
2023/05/06 06:08:32;;;;;;;4.28;2.90;;;;;;;;;;10376562;28;20155;-86
2023/05/06 06:13:41;;;;;;;6.30;3.15;;;;;;;;;;10385828;28;20124;-86
2023/05/06 06:18:50;;;;;;;8.97;3.40;;;;;;;;;;10392277;28;20042;-85
2023/05/06 06:23:53;;;;;;;;;;;;;;;;;;10393131;28;20045;-84
2023/05/06 06:29:07;;;;;;;7.90;3.33;;;;;;;;;;10371383;28;20026;-84
2023/05/06 06:34:12;;;;;;;7.28;3.67;;;;;;;;;;10369876;28;20057;-85
2023/05/06 06:39:17;;;;;;;9.10;3.47;;;;;;;;;;10364880;28;20048;-85
2023/05/06 06:44:34;;;;;;;7.70;3.88;;;;;;;;;;10390446;28;20061;-85
2023/05/06 06:49:47;;;;;;;7.75;4.03;;;;;;;;;;10397115;28;20451;-86
2023/05/06 06:54:58;;;;;;;8.05;4.00;;;;;;;;;;10369165;28;20037;-86
2023/05/06 07:05:45;;;;;;;9.02;4.50;;;;;;;;;;10409926;28;20082;-86
2023/05/06 07:10:54;;;;;;;8.10;4.60;;;;;;;;;;10374151;28;20191;-86
2023/05/06 07:16:03;;;;;;;10.90;4.82;;;;;;;;;;10393415;28;20045;-86
2023/05/06 07:21:10;;;;;;;10.27;5.40;;;;;;;;;;10391640;28;20041;-88
2023/05/06 07:26:13;;;;;;;8.13;4.25;;;;;;;;;;10377513;28;20048;-87
2023/05/06 07:31:19;;;;;;;;;;;;;;;;;;10401981;28;20046;-88
2023/05/06 07:36:42;;;;;;;12.52;4.20;;;;;;;;;;10399789;28;19943;-86
2023/05/06 07:41:58;;;;;;;9.88;5.15;;;;;;;;;;10391831;28;20438;-83
2023/05/06 07:47:06;;;;;;;7.85;3.75;;;;;;;;;;10390860;28;20048;-84
2023/05/06 07:52:16;;;;;;;8.02;4.15;;;;;;;;;;10373453;28;20071;-84
2023/05/06 07:57:21;;;;;;;7.68;4.47;;;;;;;;;;10404643;28;20040;-85
2023/05/06 08:02:42;;;;;;;7.53;3.80;;;;;;;;;;10374366;28;20069;-83
2023/05/06 08:07:51;;;;;;;6.80;3.55;;;;;;;;;;10401277;28;20128;-85
2023/05/06 08:12:55;;;;;;;6.47;3.03;;;;;;;;;;10410824;28;20037;-87
2023/05/06 08:18:03;;;;;;;5.15;2.78;;;;;;;;;;10386529;28;20390;-84
2023/05/06 08:23:30;;;;;;;6.10;3.40;;;;;;;;;;10382790;28;20482;-84
2023/05/06 08:28:37;;;;;;;5.15;3.38;;;;;;;;;;10387711;28;20035;-83
2023/05/06 08:33:53;;;;;;;7.40;3.08;;;;;;;;;;10412529;28;20041;-85
2023/05/06 08:44:40;;;;;;;6.38;3.40;;;;;;;;;;10380941;28;20552;-84
2023/05/06 08:49:50;;;;;;;6.40;3.20;;;;;;;;;;10396592;28;20061;-84
2023/05/06 08:55:13;;;;;;;5.55;3.30;;;;;;;;;;10393133;28;20415;-82
2023/05/06 09:00:23;;;;;;;5.40;2.63;;;;;;;;;;10397045;28;20191;-85
2023/05/06 09:05:28;;;;;;;4.20;2.72;;;;;;;;;;10383103;28;20284;-84
2023/05/06 09:10:39;;;;;;;6.57;3.30;;;;;;;;;;10389354;28;20049;-83
2023/05/06 09:15:58;;;;;;;5.53;3.40;;;;;;;;;;10375317;28;20049;-81
2023/05/06 09:21:10;;;;;;;3.67;2.70;;;;;;;;;;10357235;28;20041;-83
2023/05/06 09:26:20;;;;;;;5.63;3.42;;;;;;;;;;10369162;28;20061;-83
2023/05/06 09:31:41;;;;;;;4.35;2.80;;;;;;;;;;10396831;28;20041;-83
2023/05/06 09:42:13;;;;;;;3.90;2.40;;;;;;;;;;10379503;28;20049;-83
2023/05/06 09:47:19;;;;;;;;;;;;;;;;;;10386056;28;20045;-83
2023/05/06 09:52:25;;;;;;;3.25;2.35;;;;;;;;;;10367466;28;19936;-82
2023/05/06 09:57:36;;;;;;;4.80;3.40;;;;;;;;;;10387047;28;20073;-81
2023/05/06 10:02:56;;;;;;;4.30;3.00;;;;;;;;;;10372003;28;20047;-82
2023/05/06 10:08:20;;;;;;;6.88;4.10;;;;;;;;;;10370109;28;20402;-81
2023/05/06 10:13:27;;;;;;;4.77;3.37;;;;;;;;;;10373121;28;21375;-82
2023/05/06 10:18:31;;;;;;;4.75;3.17;;;;;;;;;;10370817;28;20038;-82
2023/05/06 10:23:43;;;;;;;4.80;3.08;;;;;;;;;;10393834;28;20068;-83
2023/05/06 10:28:48;;;;;;;3.13;2.33;;;;;;;;;;10388516;28;20510;-82
2023/05/06 10:34:02;;;;;;;4.35;2.80;;;;;;;;;;10387592;28;20192;-83
2023/05/06 10:39:13;;;;;;;15.00;8.63;;;;;;;;;;10390352;28;20041;-82
2023/05/06 10:44:17;;;;;;;8.38;3.90;;;;;;;;;;10387990;28;20116;-83
2023/05/06 10:49:21;;;;;;;3.03;2.05;;;;;;;;;;10367138;28;20065;-84
2023/05/06 10:59:57;;;;;;;3.50;2.33;;;;;;;;;;10586709;27;20892;-81
2023/05/06 11:05:00;;;;;;;3.92;2.60;;;;;;;;;;10560371;27;20417;-81
2023/05/06 11:10:05;;;;;;;2.75;2.50;;;;;;;;;;10561654;28;20131;-81
2023/05/06 11:15:23;;;;;;;2.80;2.60;;;;;;;;;;10561540;28;20040;-81
2023/05/06 11:20:26;;;;;;;3.92;2.25;;;;;;;;;;10565553;28;20529;-81
2023/05/06 11:25:39;;;;;;;3.08;2.50;;;;;;;;;;10557659;28;20800;-81
2023/05/06 11:30:43;;;;;;;3.95;2.60;;;;;;;;;;10553951;28;20043;-81
2023/05/06 11:35:46;;;;;;;3.65;2.67;;;;;;;;;;10547562;28;20040;-81
2023/05/06 11:40:49;;;;;;;4.63;2.20;;;;;;;;;;10558811;28;20254;-81
2023/05/06 11:45:53;;;;;;;3.75;2.50;;;;;;;;;;10564825;27;20042;-81
2023/05/06 11:50:56;;;;;;;3.25;2.50;;;;;;;;;;10556277;27;20047;-82
2023/05/06 11:55:59;;;;;;;4.32;2.92;;;;;;;;;;10557120;27;20043;-81
2023/05/06 12:01:03;;;;;;;3.15;2.45;;;;;;;;;;10551455;28;20393;-80
2023/05/06 12:06:06;;;;;;;5.45;2.50;;;;;;;;;;10551700;28;20089;-81
2023/05/06 12:11:09;;;;;;;2.75;2.35;;;;;;;;;;10528463;28;20036;-83
2023/05/06 12:16:14;;;;;;;3.30;1.83;;;;;;;;;;10520882;28;20044;-82
2023/05/06 12:21:21;;;;;;;2.72;1.80;;;;;;;;;;10517606;28;20060;-82
2023/05/06 12:26:26;;;;;;;4.07;2.17;;;;;;;;;;10513411;28;20051;-82
2023/05/06 12:31:30;;;;;;;2.97;2.22;;;;;;;;;;10519928;28;20036;-82
2023/05/06 12:36:33;;;;;;;5.28;2.38;;;;;;;;;;10518365;28;20036;-83
2023/05/06 12:41:37;;;;;;;4.57;3.30;;;;;;;;;;10515637;28;20289;-82
2023/05/06 12:46:52;;;;;;;4.85;2.63;;;;;;;;;;10532315;28;20040;-80
2023/05/06 12:52:05;;;;;;;3.30;1.80;;;;;;;;;;10525946;28;20048;-83
2023/05/06 12:57:09;;;;;;;2.90;2.10;;;;;;;;;;10533179;28;20043;-83
2023/05/06 13:02:13;;;;;;;2.33;1.70;;;;;;;;;;10526392;28;20167;-85
2023/05/06 13:07:16;;;;;;;3.65;2.00;;;;;;;;;;10529056;28;20100;-84
2023/05/06 13:12:19;;;;;;;4.70;2.40;;;;;;;;;;10516918;28;20126;-83
2023/05/06 13:17:23;;;;;;;4.30;2.75;;;;;;;;;;10523160;28;20036;-82
2023/05/06 13:22:26;;;;;;;4.80;2.38;;;;;;;;;;10521451;28;20047;-82
2023/05/06 13:27:29;;;;;;;2.40;2.00;;;;;;;;;;10523611;28;20040;-81
2023/05/06 13:32:34;;;;;;;4.15;1.90;;;;;;;;;;10511374;28;20465;-81
2023/05/06 13:37:36;;;;;;;3.83;1.83;;;;;;;;;;10512645;28;20044;-82
2023/05/06 13:42:39;;;;;;;3.47;1.90;;;;;;;;;;10516559;28;20055;-83
2023/05/06 13:47:43;;;;;;;4.22;2.00;;;;;;;;;;10517377;28;20794;-82
2023/05/06 13:52:46;;;;;;;4.28;2.80;;;;;;;;;;10511730;28;20450;-85
2023/05/06 13:57:49;;;;;;;2.97;2.00;;;;;;;;;;10514177;28;20040;-82
2023/05/06 14:02:53;;;;;;;4.05;2.08;;;;;;;;;;10509484;28;20424;-82
2023/05/06 14:07:56;;;;;;;1.88;1.75;;;;;;;;;;10508276;28;20446;-82
2023/05/06 14:12:59;;;;;;;4.35;2.35;;;;;;;;;;10503227;28;20119;-82
2023/05/06 14:18:03;;;;;;;7.05;2.63;;;;;;;;;;10501230;28;20059;-82
2023/05/06 14:23:06;;;;;;;3.30;2.00;;;;;;;;;;10515147;28;20242;-82
2023/05/06 14:28:09;;;;;;;3.65;1.70;;;;;;;;;;10515769;28;20055;-84
2023/05/06 14:33:13;;;;;;;1.83;1.60;;;;;;;;;;10515235;28;20078;-80
2023/05/06 14:38:16;;;;;;;3.55;1.65;;;;;;;;;;10516909;28;20559;-80
2023/05/06 14:43:19;;;;;;;3.08;1.58;;;;;;;;;;10514585;28;20043;-80
2023/05/06 14:48:24;;;;;;;4.78;1.80;;;;;;;;;;10517695;28;20163;-81
2023/05/06 14:53:26;;;;;;;5.60;1.80;;;;;;;;;;10518399;28;20052;-80
2023/05/06 14:58:29;;;;;;;3.08;2.05;;;;;;;;;;10515404;28;20032;-81
2023/05/06 15:03:35;;;;;;;3.83;1.65;;;;;;;;;;10510064;28;20067;-81
2023/05/06 15:08:38;;;;;;;4.95;1.60;;;;;;;;;;10512838;28;20082;-80
2023/05/06 15:13:40;;;;;;;2.60;1.67;;;;;;;;;;10513819;28;20487;-81
2023/05/06 15:18:45;;;;;;;4.30;2.10;;;;;;;;;;10508308;28;20412;-80
2023/05/06 15:23:48;;;;;;;1.83;1.60;;;;;;;;;;10504626;28;20044;-81
2023/05/06 15:28:50;;;;;;;3.20;1.52;;;;;;;;;;10514875;28;20047;-81
2023/05/06 15:33:55;;;;;;;1.92;1.52;;;;;;;;;;10508426;28;20040;-80
2023/05/06 15:39:02;;;;;;;2.33;1.70;;;;;;;;;;10512404;28;20036;-82
2023/05/06 15:44:05;;;;;;;2.60;1.80;;;;;;;;;;10527676;28;20358;-80
2023/05/06 15:49:09;;;;;;;1.77;1.50;;;;;;;;;;10518963;28;20123;-81
2023/05/06 15:54:35;;;;;;;3.05;1.50;;;;;;;;;;10510671;28;20222;-81
2023/05/06 15:59:39;;;;;;;3.60;1.60;;;;;;;;;;10527454;28;20036;-83
2023/05/06 16:04:44;;;;;;;2.17;1.40;;;;;;;;;;10524102;28;20588;-80
2023/05/06 16:09:57;;;;;;;1.35;1.25;;;;;;;;;;10523851;28;20114;-81
2023/05/06 16:15:08;;;;;;;4.30;1.58;;;;;;;;;;10528711;28;20538;-81
2023/05/06 16:20:14;;;;;;;2.05;1.35;;;;;;;;;;10523674;28;20051;-81
2023/05/06 16:25:17;;;;;;;2.92;1.77;;;;;;;;;;10566257;27;20115;-81
2023/05/06 16:30:23;;;;;;;4.95;1.70;;;;;;;;;;10559895;27;20051;-81
2023/05/06 16:35:28;;;;;;;3.75;1.80;;;;;;;;;;10567280;27;20118;-80
2023/05/06 16:40:31;;;;;;;2.90;1.77;;;;;;;;;;10557665;27;20480;-81
2023/05/06 16:45:34;;;;;;;3.75;2.00;;;;;;;;;;10568444;27;20112;-81
2023/05/06 16:50:38;;;;;;;10.15;3.75;;;;;;;;;;10566082;27;20441;-82
2023/05/06 16:55:45;;;;;;;5.88;2.15;;;;;;;;;;10568340;27;20489;-81
2023/05/06 17:00:51;;;;;;;5.40;2.20;;;;;;;;;;10570254;27;20166;-81
2023/05/06 17:05:55;;;;;;;3.58;2.55;;;;;;;;;;10567781;28;20048;-82
2023/05/06 17:10:58;;;;;;;2.83;1.95;;;;;;;;;;10565925;27;20047;-82
2023/05/06 17:16:01;;;;;;;;;;;;;;;;;;10567150;27;20114;-81
2023/05/06 17:21:06;;;;;;;2.80;1.70;;;;;;;;;;10566237;27;19926;-81
2023/05/06 17:26:09;;;;;;;5.38;2.42;;;;;;;;;;10563769;27;20039;-82
2023/05/06 17:31:13;;;;;;;2.97;1.73;;;;;;;;;;10563808;27;20131;-88
2023/05/06 17:36:19;;;;;;;2.38;1.70;;;;;;;;;;10570510;28;20333;-86
2023/05/06 17:41:25;;;;;;;6.72;3.00;;;;;;;;;;10567108;27;20043;-85
2023/05/06 17:46:32;;;;;;;3.05;1.98;;;;;;;;;;10581271;27;20043;-86
2023/05/06 17:51:36;;;;;;;3.13;1.83;;;;;;;;;;10601251;27;20054;-85
2023/05/06 17:56:39;;;;;;;4.38;1.77;;;;;;;;;;10588871;27;20043;-83
2023/05/06 18:01:42;;;;;;;4.38;2.03;;;;;;;;;;10576504;27;20039;-83
2023/05/06 18:06:47;;;;;;;3.58;2.28;;;;;;;;;;10574366;27;20039;-84
2023/05/06 18:11:50;;;;;;;5.47;2.35;;;;;;;;;;10553377;27;20040;-83
2023/05/06 18:16:53;;;;;;;4.00;2.13;;;;;;;;;;10540627;28;20059;-82
2023/05/06 18:21:59;;;;;;;3.80;2.00;;;;;;;;;;10543067;27;20146;-83
2023/05/06 18:27:02;;;;;;;5.20;2.08;;;;;;;;;;10539305;27;20091;-85
2023/05/06 18:32:05;;;;;;;5.13;2.20;;;;;;;;;;10546309;27;20447;-84
2023/05/06 18:37:09;;;;;;;4.47;2.00;;;;;;;;;;10611918;27;20526;-85
2023/05/06 18:42:12;;;;;;;5.80;2.20;;;;;;;;;;10577066;27;20039;-84
2023/05/06 18:47:15;;;;;;;4.93;2.40;;;;;;;;;;10604629;27;20511;-84
2023/05/06 18:52:19;;;;;;;4.17;2.20;;;;;;;;;;10596091;27;20403;-84
2023/05/06 18:57:22;;;;;;;4.18;2.38;;;;;;;;;;10612017;27;20063;-84
2023/05/06 19:02:25;;;;;;;4.38;2.33;;;;;;;;;;10598937;27;20051;-84
2023/05/06 19:07:29;;;;;;;7.67;3.03;;;;;;;;;;10602662;27;20051;-83
2023/05/06 19:12:33;;;;;;;5.63;2.90;;;;;;;;;;10604960;27;20038;-83
2023/05/06 19:17:35;;;;;;;6.32;3.00;;;;;;;;;;10609928;27;20210;-83
2023/05/06 19:22:39;;;;;;;7.80;3.28;;;;;;;;;;10613310;27;20043;-83
2023/05/06 19:27:42;;;;;;;9.00;3.17;;;;;;;;;;10621459;27;20031;-83
2023/05/06 19:32:45;;;;;;;7.20;3.60;;;;;;;;;;10621591;27;20047;-83
2023/05/06 19:37:49;;;;;;;8.30;3.85;;;;;;;;;;10598414;27;20104;-85
2023/05/06 19:42:52;;;;;;;6.20;3.40;;;;;;;;;;10615788;27;20073;-82
2023/05/06 19:47:55;;;;;;;7.20;3.50;;;;;;;;;;10626959;27;20054;-83
2023/05/06 19:52:59;;;;;;;5.73;3.13;;;;;;;;;;10620189;27;20565;-84
2023/05/06 19:58:02;;;;;;;5.40;3.22;;;;;;;;;;10617757;27;20062;-84
2023/05/06 20:03:04;;;;;;;8.98;4.22;;;;;;;;;;10616426;27;20039;-81
2023/05/06 20:08:14;;;;;;;7.97;3.53;;;;;;;;;;10610551;27;20040;-82
2023/05/06 20:13:17;;;;;;;9.80;4.30;;;;;;;;;;10618556;27;20503;-82
2023/05/06 20:18:20;;;;;;;8.10;3.47;;;;;;;;;;10615885;27;20038;-77
2023/05/06 20:23:24;;;;;;;9.27;4.50;;;;;;;;;;10617004;27;20111;-77
2023/05/06 20:28:28;;;;;;;23.13;10.88;;;;;;;;;;10607037;27;20044;-82
2023/05/06 20:33:31;;;;;;;;;;;;;;;;;;10599657;27;20265;-82
2023/05/06 20:38:35;;;;;;;7.32;4.53;;;;;;;;;;10611069;27;19920;-81
2023/05/06 20:43:38;;;;;;;9.77;4.72;;;;;;;;;;10606953;27;20036;-79
2023/05/06 20:48:40;;;;;;;9.07;4.63;;;;;;;;;;10609414;27;20142;-81
2023/05/06 20:53:46;;;;;;;9.90;5.10;;;;;;;;;;10611944;27;20035;-81
2023/05/06 20:58:48;;;;;;;9.68;4.45;;;;;;;;;;10612330;27;20035;-81
2023/05/06 21:03:51;;;;;;;7.43;4.40;;;;;;;;;;10619765;27;20129;-81
2023/05/06 21:08:56;;;;;;;12.38;5.07;;;;;;;;;;10606632;27;20225;-81
2023/05/06 21:13:59;;;;;;;8.40;4.50;;;;;;;;;;10603548;27;20123;-81
2023/05/06 21:19:02;;;;;;;8.55;4.47;;;;;;;;;;10612898;27;20912;-80
2023/05/06 21:24:07;;;;;;;8.00;3.57;;;;;;;;;;10607847;27;20436;-80
2023/05/06 21:29:10;;;;;;;7.35;3.72;;;;;;;;;;10609876;27;20038;-80
2023/05/06 21:34:12;;;;;;;7.90;3.63;;;;;;;;;;10599453;27;20156;-81
2023/05/06 21:39:16;;;;;;;9.02;4.07;;;;;;;;;;10604780;27;20304;-80
2023/05/06 21:44:19;;;;;;;11.88;5.70;;;;;;;;;;10586886;27;20048;-80
2023/05/06 21:49:22;;;;;;;9.80;4.40;;;;;;;;;;10602487;27;20043;-80
2023/05/06 21:54:26;;;;;;;10.70;4.43;;;;;;;;;;10597113;27;20051;-81
2023/05/06 21:59:29;;;;;;;7.25;4.32;;;;;;;;;;10605049;27;20053;-81
2023/05/06 22:04:32;;;;;;;9.33;4.53;;;;;;;;;;10611583;27;20063;-81
2023/05/06 22:09:36;;;;;;;13.07;4.95;;;;;;;;;;10603226;27;20051;-81
2023/05/06 22:14:39;;;;;;;9.32;4.40;;;;;;;;;;10601100;27;20071;-81
2023/05/06 22:19:43;;;;;;;8.00;4.75;;;;;;;;;;10610113;27;20388;-81
2023/05/06 22:24:48;;;;;;;7.68;4.85;;;;;;;;;;10612222;27;20053;-81
2023/05/06 22:29:51;;;;;;;10.10;4.53;;;;;;;;;;10609803;27;20521;-81
2023/05/06 22:34:53;;;;;;;10.48;5.00;;;;;;;;;;10601400;27;21752;-80
2023/05/06 22:39:57;;;;;;;9.23;4.80;;;;;;;;;;10607734;27;20046;-80
2023/05/06 22:45:00;;;;;;;9.40;4.57;;;;;;;;;;10605515;27;20138;-81
2023/05/06 22:50:04;;;;;;;9.43;5.23;;;;;;;;;;10614319;27;20337;-80
2023/05/06 22:55:09;;;;;;;11.70;5.28;;;;;;;;;;10602354;27;20058;-80
2023/05/06 23:00:12;;;;;;;12.35;5.90;;;;;;;;;;10586116;27;20514;-82
2023/05/06 23:05:15;;;;;;;10.10;5.17;;;;;;;;;;10598449;27;20415;-82
2023/05/06 23:10:19;;;;;;;11.95;5.60;;;;;;;;;;10594334;27;20035;-82
2023/05/06 23:15:22;;;;;;;13.85;6.25;;;;;;;;;;10592720;27;20039;-82
2023/05/06 23:20:25;;;;;;;11.23;5.47;;;;;;;;;;10602919;27;20054;-80
2023/05/06 23:25:29;;;;;;;12.02;5.55;;;;;;;;;;10600391;27;20035;-81
2023/05/06 23:30:31;;;;;;;14.00;6.13;;;;;;;;;;10594596;27;20039;-81
2023/05/06 23:35:34;;;;;;;12.65;6.38;;;;;;;;;;10602446;27;20507;-79
2023/05/06 23:40:38;;;;;;;13.32;6.57;;;;;;;;;;10589697;27;20043;-80
2023/05/06 23:45:40;;;;;;;;;;;;;;;;;;10609040;27;20395;-80
2023/05/06 23:50:43;;;;;;;9.73;5.93;;;;;;;;;;10597362;27;19935;-81
2023/05/06 23:55:47;;;;;;;13.13;6.25;;;;;;;;;;10613722;27;20070;-81
